createdAt,value
2022-11-05T00:04:56.765Z,99363.50
2022-11-05T00:10:06.460Z,99362.24
2022-11-05T00:15:13.006Z,99362.30
2022-11-05T00:20:15.763Z,99355.73
2022-11-05T00:25:20.103Z,99345.16
2022-11-05T00:30:25.866Z,99342.51
2022-11-05T00:35:28.590Z,99328.22
2022-11-05T00:40:33.683Z,99327.48
2022-11-05T00:45:37.718Z,99326.73
2022-11-05T00:50:40.680Z,99322.98
2022-11-05T00:55:45.019Z,99320.88
2022-11-05T01:00:50.708Z,99315.02
2022-11-05T01:05:56.285Z,99313.88
2022-11-05T01:10:59.735Z,99309.23
2022-11-05T01:16:07.347Z,99301.45
2022-11-05T01:21:15.666Z,99299.44
2022-11-05T01:26:18.747Z,99290.66
2022-11-05T01:31:21.663Z,99294.71
2022-11-05T01:36:25.541Z,99284.02
2022-11-05T01:41:29.245Z,99275.86
2022-11-05T01:46:38.516Z,99271.82
2022-11-05T01:51:42.256Z,99269.23
2022-11-05T01:56:53.707Z,99266.23
2022-11-05T02:01:56.701Z,99258.94
2022-11-05T02:07:00.097Z,99257.42
2022-11-05T02:12:03.236Z,99266.30
2022-11-05T02:17:11.279Z,99275.98
2022-11-05T02:22:41.249Z,99274.81
2022-11-05T02:28:01.437Z,99267.52
2022-11-05T02:33:12.509Z,99267.39
2022-11-05T02:38:21.084Z,99270.67
2022-11-05T02:43:29.258Z,99268.05
2022-11-05T02:48:42.274Z,99273.55
2022-11-05T02:53:51.034Z,99269.30
2022-11-05T02:58:53.547Z,99270.48
2022-11-05T03:04:00.667Z,99274.59
2022-11-05T03:09:28.258Z,99282.20
2022-11-05T03:14:40.243Z,99282.88
2022-11-05T03:19:45.661Z,99287.46
2022-11-05T03:24:54.325Z,99287.80
2022-11-05T03:30:03.053Z,99279.77
2022-11-05T03:35:14.639Z,99283.00
2022-11-05T03:40:18.608Z,99275.24
2022-11-05T03:45:31.970Z,99268.50
2022-11-05T03:50:44.858Z,99263.00
2022-11-05T03:55:56.563Z,99261.92
2022-11-05T04:01:02.091Z,99271.06
2022-11-05T04:06:09.659Z,99268.91
2022-11-05T04:11:15.238Z,99276.33
2022-11-05T04:16:20.663Z,99276.70
2022-11-05T04:21:26.161Z,99273.70
2022-11-05T04:26:28.644Z,99262.00
2022-11-05T04:31:31.109Z,99274.27
2022-11-05T04:36:33.698Z,99283.98
2022-11-05T04:41:36.183Z,99278.17
2022-11-05T04:46:38.684Z,99277.70
2022-11-05T04:51:41.254Z,99280.98
2022-11-05T04:56:43.750Z,99293.35
2022-11-05T05:01:46.411Z,99300.20
2022-11-05T05:06:48.941Z,99303.37
2022-11-05T05:11:51.501Z,99304.76
2022-11-05T05:16:53.988Z,99311.67
2022-11-05T05:21:56.454Z,99325.51
2022-11-05T05:26:59.210Z,99340.59
2022-11-05T05:32:01.677Z,99347.05
2022-11-05T05:37:04.318Z,99356.99
2022-11-05T05:42:06.808Z,99351.23
2022-11-05T05:47:09.386Z,99342.54
2022-11-05T05:52:12.016Z,99349.58
2022-11-05T05:57:14.519Z,99345.98
2022-11-05T06:02:17.237Z,99357.39
2022-11-05T06:07:19.788Z,99366.02
2022-11-05T06:12:22.477Z,99372.48
2022-11-05T06:17:25.049Z,99384.46
2022-11-05T06:22:27.573Z,99387.17
2022-11-05T06:27:30.161Z,99383.36
2022-11-05T06:32:32.690Z,99383.02
2022-11-05T06:37:35.182Z,99381.30
2022-11-05T06:42:37.632Z,99385.16
2022-11-05T06:47:40.169Z,99401.63
2022-11-05T06:52:42.645Z,99415.00
2022-11-05T06:57:45.271Z,99415.23
2022-11-05T07:02:50.763Z,99417.80
2022-11-05T07:07:53.247Z,99426.38
2022-11-05T07:12:55.979Z,99422.92
2022-11-05T07:18:00.091Z,99434.11
2022-11-05T07:23:06.626Z,99440.88
2022-11-05T07:29:19.111Z,99447.36
2022-11-05T07:34:21.566Z,99449.37
2022-11-05T07:39:24.143Z,99455.96
2022-11-05T07:44:26.734Z,99460.63
2022-11-05T07:49:29.248Z,99467.50
2022-11-05T07:54:33.974Z,99473.84
2022-11-05T07:59:36.785Z,99482.98
2022-11-05T08:04:40.273Z,99491.73
2022-11-05T08:09:42.834Z,99496.73
2022-11-05T08:14:45.329Z,99503.90
2022-11-05T08:19:47.868Z,99507.09
2022-11-05T08:24:50.368Z,99507.46
2022-11-05T08:29:53.011Z,99515.19
2022-11-05T08:34:55.618Z,99519.58
2022-11-05T08:40:00.414Z,99528.95
2022-11-05T08:45:03.303Z,99533.26
2022-11-05T08:50:06.296Z,99535.42
2022-11-05T08:55:09.330Z,99545.90
2022-11-05T09:00:13.514Z,99546.33
2022-11-05T09:05:16.098Z,99552.30
2022-11-05T09:10:18.585Z,99559.86
2022-11-05T09:15:21.402Z,99562.65
2022-11-05T09:20:23.994Z,99566.72
2022-11-05T09:25:26.762Z,99569.56
2022-11-05T09:30:29.325Z,99575.05
2022-11-05T09:35:31.896Z,99582.61
2022-11-05T09:40:43.626Z,99596.31
2022-11-05T09:45:51.720Z,99598.98
2022-11-05T09:50:54.800Z,99598.63
2022-11-05T09:56:00.127Z,99604.73
2022-11-05T10:01:09.360Z,99610.87
2022-11-05T10:06:21.127Z,99608.94
2022-11-05T10:11:31.799Z,99617.21
2022-11-05T10:16:39.806Z,99627.30
2022-11-05T10:22:05.553Z,99630.38
2022-11-05T10:27:05.699Z,99630.06
2022-11-05T10:32:11.590Z,99641.88
2022-11-05T10:37:14.144Z,99652.95
2022-11-05T10:42:22.593Z,99664.40
2022-11-05T10:47:31.028Z,99666.48
2022-11-05T10:52:53.697Z,99672.14
2022-11-05T10:58:07.967Z,99682.91
2022-11-05T11:03:16.693Z,99687.61
2022-11-05T11:08:24.015Z,99698.27
2022-11-05T11:13:29.523Z,99703.35
2022-11-05T11:18:40.339Z,99707.45
2022-11-05T11:23:54.299Z,99713.77
2022-11-05T11:29:01.891Z,99711.09
2022-11-05T11:34:07.575Z,99725.06
2022-11-05T11:39:30.403Z,99732.53
2022-11-05T11:44:41.088Z,99734.74
2022-11-05T11:49:48.105Z,99737.90
2022-11-05T11:54:52.374Z,99735.94
2022-11-05T12:00:12.682Z,99726.96
2022-11-05T12:05:21.160Z,99739.29
2022-11-05T12:10:34.093Z,99748.45
2022-11-05T12:15:41.508Z,99741.95
2022-11-05T12:20:52.775Z,99735.08
2022-11-05T12:26:05.962Z,99734.88
2022-11-05T12:31:08.455Z,99742.31
2022-11-05T12:36:19.013Z,99743.83
2022-11-05T12:41:30.124Z,99756.89
2022-11-05T12:46:43.609Z,99758.26
2022-11-05T12:51:50.041Z,99766.52
2022-11-05T12:56:57.680Z,99767.92
2022-11-05T13:02:11.296Z,99777.50
2022-11-05T13:07:20.035Z,99786.52
2022-11-05T13:12:27.407Z,99793.05
2022-11-05T13:17:38.145Z,99796.85
2022-11-05T13:22:46.591Z,99796.67
2022-11-05T13:27:57.834Z,99806.55
2022-11-05T13:33:12.841Z,99811.46
2022-11-05T13:38:26.745Z,99815.86
2022-11-05T13:43:41.636Z,99826.33
2022-11-05T13:48:58.820Z,99839.20
2022-11-05T13:54:10.993Z,99848.63
2022-11-05T13:59:17.376Z,99858.98
2022-11-05T14:04:43.075Z,99861.23
2022-11-05T14:09:46.532Z,99862.39
2022-11-05T14:14:58.401Z,99877.58
2022-11-05T14:20:04.362Z,99882.21
2022-11-05T14:25:12.701Z,99895.92
2022-11-05T14:30:21.069Z,99901.55
2022-11-05T14:35:41.299Z,99907.15
2022-11-05T14:40:44.605Z,99915.23
2022-11-05T14:45:52.945Z,99914.13
2022-11-05T14:50:55.944Z,99921.70
2022-11-05T14:56:07.167Z,99919.77
2022-11-05T15:01:13.795Z,99919.17
2022-11-05T15:06:22.405Z,99917.54
2022-11-05T15:11:32.845Z,99919.99
2022-11-05T15:16:42.172Z,99923.56
2022-11-05T15:21:45.457Z,99925.01
2022-11-05T15:33:28.107Z,99933.36
2022-11-05T15:38:34.102Z,99939.48
2022-11-05T15:43:47.672Z,99942.66
2022-11-05T15:48:54.337Z,99939.89
2022-11-05T15:59:25.081Z,99948.50
2022-11-05T16:04:31.773Z,99955.84
2022-11-05T16:09:37.653Z,99959.88
2022-11-05T16:14:41.159Z,99970.34
2022-11-05T16:19:45.812Z,99978.79
2022-11-05T16:24:53.806Z,99998.59
2022-11-05T16:29:57.242Z,100009.94
2022-11-05T16:35:02.631Z,100023.96
2022-11-05T16:40:14.499Z,100028.92
2022-11-05T16:45:20.987Z,100027.13
2022-11-05T16:50:27.249Z,100027.65
2022-11-05T16:55:32.029Z,100037.99
2022-11-05T17:00:34.551Z,100044.02
2022-11-05T17:05:39.396Z,100054.71
2022-11-05T17:10:41.940Z,100061.21
2022-11-05T17:15:47.330Z,100061.20
2022-11-05T17:20:55.609Z,100068.39
2022-11-05T17:26:02.174Z,100068.88
2022-11-05T17:31:07.721Z,100069.55
2022-11-05T17:36:13.473Z,100079.80
2022-11-05T17:41:19.463Z,100093.80
2022-11-05T17:46:22.333Z,100099.73
2022-11-05T17:51:27.981Z,100111.29
2022-11-05T17:56:35.032Z,100115.21
2022-11-05T18:01:43.551Z,100125.88
2022-11-05T18:06:46.494Z,100127.48
2022-11-05T18:11:51.541Z,100131.39
2022-11-05T18:16:59.123Z,100134.69
2022-11-05T18:22:01.680Z,100133.16
2022-11-05T18:27:04.198Z,100138.48
2022-11-05T18:32:06.781Z,100145.98
2022-11-05T18:37:09.366Z,100152.69
2022-11-05T18:42:11.969Z,100155.66
2022-11-05T18:47:14.726Z,100158.00
2022-11-05T18:52:17.315Z,100159.25
2022-11-05T18:57:19.841Z,100161.02
2022-11-05T19:02:23.166Z,100164.84
2022-11-05T19:07:25.819Z,100165.33
2022-11-05T19:12:28.463Z,100173.14
2022-11-05T19:17:33.113Z,100171.16
2022-11-05T19:22:36.194Z,100173.79
2022-11-05T19:27:39.197Z,100174.32
2022-11-05T19:32:44.011Z,100177.95
2022-11-05T19:37:46.575Z,100180.77
2022-11-05T19:42:49.048Z,100187.75
2022-11-05T19:47:53.663Z,100186.85
2022-11-05T19:52:56.405Z,100187.91
2022-11-05T19:57:58.890Z,100192.05
2022-11-05T20:03:02.503Z,100187.87
2022-11-05T20:08:05.302Z,100201.85
2022-11-05T20:13:07.917Z,100203.13
2022-11-05T20:18:10.723Z,100203.83
2022-11-05T20:23:14.517Z,100209.52
2022-11-05T20:28:17.184Z,100208.52
2022-11-05T20:33:19.823Z,100209.02
2022-11-05T20:38:22.485Z,100214.60
2022-11-05T20:43:30.118Z,100220.27
2022-11-05T20:48:34.490Z,100218.64
2022-11-05T20:53:37.784Z,100222.27
2022-11-05T20:58:40.256Z,100226.19
2022-11-05T21:03:43.901Z,100226.75
2022-11-05T21:08:48.110Z,100228.98
2022-11-05T21:13:50.687Z,100233.52
2022-11-05T21:18:53.251Z,100241.21
2022-11-05T21:23:56.996Z,100241.63
2022-11-05T21:28:59.487Z,100243.92
2022-11-05T21:34:02.025Z,100240.09
2022-11-05T21:39:09.024Z,100245.27
2022-11-05T21:44:14.712Z,100242.77
2022-11-05T21:49:17.249Z,100246.09
2022-11-05T21:54:22.782Z,100246.48
2022-11-05T21:59:28.614Z,100254.89
2022-11-05T22:04:32.349Z,100253.22
2022-11-05T22:09:35.234Z,100257.45
2022-11-05T22:14:37.751Z,100256.96
2022-11-05T22:19:40.361Z,100253.48
2022-11-05T22:24:43.320Z,100255.36
2022-11-05T22:29:46.123Z,100264.71
2022-11-05T22:34:48.946Z,100275.30
2022-11-05T22:39:51.766Z,100280.54
2022-11-05T22:44:54.232Z,100283.14
2022-11-05T22:49:56.844Z,100288.67
2022-11-05T22:56:19.363Z,100293.46
2022-11-05T23:01:23.422Z,100296.38
2022-11-05T23:06:31.798Z,100294.20
2022-11-05T23:11:35.303Z,100300.05
2022-11-05T23:16:59.339Z,100301.36
2022-11-05T23:22:04.848Z,100299.60
2022-11-05T23:27:07.826Z,100300.94
2022-11-05T23:32:13.260Z,100307.82
2022-11-05T23:37:19.169Z,100311.02
2022-11-05T23:42:24.609Z,100308.17
2022-11-05T23:47:30.058Z,100306.77
2022-11-05T23:52:32.545Z,100308.46
2022-11-05T23:57:35.103Z,100308.89
